Time;durP1;ratioP1;P1;durP2;ratioP2;P2;SDS_P1;SDS_P2;PMS_P1;PMS_P2;Temp;Humidity;BMP_temperature;BMP_pressure;BME280_temperature;BME280_humidity;BME280_pressure;Samples;Min_cycle;Max_cycle;Signal;HPM_P1;HPM_P2
2021/09/23 00:01:39;;;;;;;;;;;9.10;1.00;;;;;;5033311;28;19909;-75
2021/09/23 00:04:34;;;;;;;;;;;9.10;1.00;;;;;;5028653;28;19910;-75
2021/09/23 00:07:03;;;;;;;;;;;9.10;1.00;;;;;;5014252;28;19913;-75
2021/09/23 00:09:29;;;;;;;;;;;9.00;1.00;;;;;;5031900;28;19915;-77
2021/09/23 00:12:01;;;;;;;;;;;9.00;1.00;;;;;;5033737;28;20534;-75
2021/09/23 00:14:26;;;;;;;;;;;9.00;1.00;;;;;;5027261;28;19910;-75
2021/09/23 00:16:52;;;;;;;;;;;9.00;1.00;;;;;;5021211;28;19916;-74
2021/09/23 00:19:18;;;;;;;;;;;8.90;1.00;;;;;;5015085;28;20013;-75
2021/09/23 00:21:49;;;;;;;;;;;8.90;1.00;;;;;;5022926;28;19916;-74
2021/09/23 00:24:14;;;;;;;;;;;8.90;1.00;;;;;;5036901;28;19909;-75
2021/09/23 00:26:43;;;;;;;;;;;8.90;1.00;;;;;;5037762;28;19913;-75
2021/09/23 00:29:25;;;;;;;;;;;8.90;1.00;;;;;;5037070;28;19909;-75
2021/09/23 00:31:50;;;;;;;;;;;8.80;1.00;;;;;;5028599;28;19975;-75
2021/09/23 00:34:25;;;;;;;;;;;8.80;1.00;;;;;;5037084;28;19913;-75
2021/09/23 00:36:50;;;;;;;;;;;8.80;1.00;;;;;;5018272;28;19910;-75
2021/09/23 00:39:16;;;;;;;;;;;8.80;1.00;;;;;;5035846;28;19913;-75
2021/09/23 00:41:56;;;;;;;;;;;8.80;1.00;;;;;;5037505;28;19943;-75
2021/09/23 00:44:23;;;;;;;;;;;8.70;1.00;;;;;;5036628;28;20409;-75
2021/09/23 00:46:55;;;;;;;;;;;8.70;1.00;;;;;;5036627;28;19932;-76
2021/09/23 00:49:20;;;;;;;;;;;8.70;1.00;;;;;;5029619;28;19913;-75
2021/09/23 00:51:55;;;;;;;;;;;8.70;1.00;;;;;;5037143;28;19905;-74
2021/09/23 00:54:25;;;;;;;;;;;8.60;1.00;;;;;;5033587;28;19917;-75
2021/09/23 00:57:01;;;;;;;;;;;8.60;1.00;;;;;;5024852;28;19941;-77
2021/09/23 01:02:55;;;;;;;;;;;8.50;1.00;;;;;;5025775;28;20391;-77
2021/09/23 01:05:20;;;;;;;;;;;8.50;1.00;;;;;;5020108;28;19909;-77
2021/09/23 01:07:49;;;;;;;;;;;8.50;1.00;;;;;;5036717;28;19905;-77
2021/09/23 01:10:19;;;;;;;;;;;8.50;1.00;;;;;;5025946;28;20040;-75
2021/09/23 01:12:45;;;;;;;;;;;8.50;1.00;;;;;;5016977;28;19906;-75
2021/09/23 01:15:19;;;;;;;;;;;8.40;1.00;;;;;;5027596;28;19928;-75
2021/09/23 01:17:45;;;;;;;;;;;8.40;1.00;;;;;;5036341;28;19909;-75
2021/09/23 01:20:12;;;;;;;;;;;8.40;1.00;;;;;;5025508;28;19957;-75
2021/09/23 01:22:43;;;;;;;;;;;8.40;1.00;;;;;;5016638;28;19909;-75
2021/09/23 01:25:09;;;;;;;;;;;8.40;1.00;;;;;;5025067;28;20007;-76
2021/09/23 01:27:35;;;;;;;;;;;8.30;1.00;;;;;;5034689;28;20281;-75
2021/09/23 01:30:01;;;;;;;;;;;8.30;1.00;;;;;;5032724;28;19913;-75
2021/09/23 01:32:43;;;;;;;;;;;8.30;1.00;;;;;;5036492;28;19971;-75
2021/09/23 01:35:13;;;;;;;;;;;8.30;1.00;;;;;;5035673;28;20374;-75
2021/09/23 01:37:43;;;;;;;;;;;8.30;1.00;;;;;;5035988;28;19909;-75
2021/09/23 01:40:13;;;;;;;;;;;8.30;1.00;;;;;;5032127;28;20012;-75
2021/09/23 01:42:43;;;;;;;;;;;8.30;1.00;;;;;;5016795;28;19906;-75
2021/09/23 01:45:19;;;;;;;;;;;8.30;1.00;;;;;;5020373;28;19959;-75
2021/09/23 01:47:55;;;;;;;;;;;8.20;1.00;;;;;;5031564;28;19913;-75
2021/09/23 01:50:21;;;;;;;;;;;8.20;1.00;;;;;;5034929;28;19996;-75
2021/09/23 01:52:55;;;;;;;;;;;8.20;1.00;;;;;;5035590;28;19963;-76
2021/09/23 01:55:31;;;;;;;;;;;8.20;1.00;;;;;;5024203;28;19959;-75
2021/09/23 01:57:56;;;;;;;;;;;8.20;1.00;;;;;;5016270;28;19992;-75
2021/09/23 02:00:31;;;;;;;;;;;8.20;1.00;;;;;;5019797;28;20004;-75
2021/09/23 02:02:56;;;;;;;;;;;8.20;1.00;;;;;;5030097;28;19994;-75
2021/09/23 02:05:25;;;;;;;;;;;8.10;1.00;;;;;;5029156;28;19975;-75
2021/09/23 02:07:51;;;;;;;;;;;8.20;1.00;;;;;;5035794;28;19905;-75
2021/09/23 02:10:25;;;;;;;;;;;8.10;1.00;;;;;;5023940;28;20341;-75
2021/09/23 02:12:55;;;;;;;;;;;8.10;1.00;;;;;;5016218;28;19917;-77
2021/09/23 02:15:21;;;;;;;;;;;8.10;1.00;;;;;;5021043;28;19912;-77
2021/09/23 02:17:55;;;;;;;;;;;8.00;1.00;;;;;;5015671;28;20012;-77
2021/09/23 02:20:21;;;;;;;;;;;;;;;;;;5029558;28;20457;-78
2021/09/23 02:22:55;;;;;;;;;;;8.00;1.00;;;;;;5023392;28;19909;-77
2021/09/23 02:25:25;;;;;;;;;;;8.00;1.00;;;;;;5026917;28;19909;-77
2021/09/23 02:27:50;;;;;;;;;;;7.90;1.00;;;;;;5019153;28;20422;-75
2021/09/23 02:30:16;;;;;;;;;;;7.90;1.00;;;;;;5033723;28;19996;-75
2021/09/23 02:32:55;;;;;;;;;;;7.90;1.00;;;;;;5035168;28;19909;-75
2021/09/23 02:35:21;;;;;;;;;;;7.90;1.00;;;;;;5034695;28;20411;-75
2021/09/23 02:37:47;;;;;;;;;;;7.80;1.00;;;;;;5035205;28;19905;-75
2021/09/23 02:40:12;;;;;;;;;;;7.80;1.00;;;;;;5034474;28;20339;-75
2021/09/23 02:42:43;;;;;;;;;;;7.80;1.00;;;;;;5034543;28;19913;-75
2021/09/23 02:45:19;;;;;;;;;;;7.80;1.00;;;;;;5025656;28;19984;-75
2021/09/23 02:47:44;;;;;;;;;;;7.70;1.00;;;;;;5034451;28;19909;-75
2021/09/23 02:50:10;;;;;;;;;;;7.70;1.00;;;;;;5033800;28;19963;-75
2021/09/23 02:52:36;;;;;;;;;;;7.60;1.00;;;;;;5035006;28;19992;-75
2021/09/23 02:55:07;;;;;;;;;;;7.70;1.00;;;;;;5033788;28;19913;-75
2021/09/23 02:57:49;;;;;;;;;;;7.60;1.00;;;;;;5035224;28;19905;-77
2021/09/23 03:00:25;;;;;;;;;;;7.60;1.00;;;;;;5023255;28;19968;-77
2021/09/23 03:02:55;;;;;;;;;;;7.60;1.00;;;;;;5034458;28;20000;-77
2021/09/23 03:05:20;;;;;;;;;;;7.50;1.00;;;;;;5034311;28;19909;-77
2021/09/23 03:07:55;;;;;;;;;;;7.50;1.00;;;;;;5034102;28;20035;-77
2021/09/23 03:10:25;;;;;;;;;;;7.40;1.00;;;;;;5019656;28;19909;-77
2021/09/23 03:13:07;;;;;;;;;;;7.40;1.00;;;;;;5015280;28;20372;-75
2021/09/23 03:15:33;;;;;;;;;;;7.40;1.00;;;;;;5020073;28;19963;-75
2021/09/23 03:17:58;;;;;;;;;;;7.30;1.00;;;;;;5028007;28;19913;-75
2021/09/23 03:20:25;;;;;;;;;;;7.30;1.00;;;;;;5029084;28;19996;-74
2021/09/23 03:22:55;;;;;;;;;;;7.30;1.00;;;;;;5013286;28;19917;-75
2021/09/23 03:25:21;;;;;;;;;;;7.30;1.00;;;;;;5014605;28;19909;-75
2021/09/23 03:27:55;;;;;;;;;;;7.30;1.00;;;;;;5014823;28;19910;-75
2021/09/23 03:30:21;;;;;;;;;;;7.20;1.00;;;;;;5027691;28;19959;-75
2021/09/23 03:32:50;;;;;;;;;;;7.20;1.00;;;;;;5034242;28;19909;-74
2021/09/23 03:35:21;;;;;;;;;;;7.10;1.00;;;;;;5022941;28;19951;-74
2021/09/23 03:37:55;;;;;;;;;;;7.20;1.00;;;;;;5014483;28;19905;-75
2021/09/23 03:40:20;;;;;;;;;;;7.10;1.00;;;;;;5016546;28;19913;-75
2021/09/23 03:42:55;;;;;;;;;;;7.10;1.00;;;;;;5014772;28;19913;-77
2021/09/23 03:45:25;;;;;;;;;;;7.10;1.00;;;;;;5022702;28;19955;-77
2021/09/23 03:47:55;;;;;;;;;;;7.10;1.00;;;;;;5019418;28;19909;-82
2021/09/23 03:50:25;;;;;;;;;;;7.10;1.00;;;;;;5027732;28;19945;-77
2021/09/23 03:52:50;;;;;;;;;;;7.10;1.00;;;;;;5034131;28;19909;-77
2021/09/23 03:55:19;;;;;;;8.97;4.80;;;7.10;1.00;;;;;;5021173;28;20437;-76
2021/09/23 03:57:55;;;;;;;6.17;3.57;;;7.10;1.00;;;;;;5013008;28;20181;-74
2021/09/23 04:00:26;;;;;;;6.10;3.50;;;7.10;1.00;;;;;;5025301;28;20508;-75
2021/09/23 04:02:52;;;;;;;4.17;2.90;;;7.00;1.00;;;;;;5022767;28;20456;-74
2021/09/23 04:05:18;;;;;;;7.37;3.13;;;7.10;1.00;;;;;;5013716;28;20419;-74
2021/09/23 04:07:49;;;;;;;3.97;3.20;;;7.20;1.00;;;;;;5013723;28;20388;-74
2021/09/23 04:10:15;;;;;;;7.00;5.27;;;7.10;1.00;;;;;;5019518;28;20442;-74
2021/09/23 04:12:43;;;;;;;8.40;6.20;;;7.10;1.00;;;;;;5026047;28;20438;-74
2021/09/23 04:15:31;;;;;;;6.97;5.27;;;7.20;1.00;;;;;;5027765;28;20654;-74
2021/09/23 04:17:57;;;;;;;6.23;4.90;;;7.20;1.00;;;;;;5028928;28;20420;-74
2021/09/23 04:20:22;;;;;;;5.73;5.10;;;7.10;1.00;;;;;;5023124;28;20486;-73
2021/09/23 04:22:48;;;;;;;10.77;5.37;;;7.10;1.00;;;;;;5033277;28;20165;-75
2021/09/23 04:25:14;;;;;;;5.37;4.10;;;;;;;;;;5025326;28;20256;-75
2021/09/23 04:27:55;;;;;;;11.93;5.47;;;7.10;1.00;;;;;;5016022;28;20819;-77
2021/09/23 04:30:25;;;;;;;7.57;3.97;;;7.10;1.00;;;;;;5020290;28;20418;-77
2021/09/23 04:32:51;;;;;;;5.60;4.00;;;7.10;1.00;;;;;;5033217;28;20403;-77
2021/09/23 04:35:19;;;;;;;7.13;4.70;;;7.10;1.00;;;;;;5020654;28;20473;-77
2021/09/23 04:37:49;;;;;;;10.10;6.07;;;7.10;1.00;;;;;;5033374;28;20548;-77
2021/09/23 04:40:15;;;;;;;10.07;5.90;;;7.10;1.00;;;;;;5031692;28;20836;-77
2021/09/23 04:42:55;;;;;;;6.50;5.40;;;7.10;1.00;;;;;;5032718;28;20502;-74
2021/09/23 04:45:21;;;;;;;7.80;5.80;;;7.10;1.00;;;;;;5032854;28;20498;-76
2021/09/23 04:47:49;;;;;;;6.10;4.97;;;7.10;1.00;;;;;;5032561;28;20502;-74
2021/09/23 04:50:15;;;;;;;7.63;5.90;;;7.10;1.00;;;;;;5032365;28;20612;-74
2021/09/23 04:52:43;;;;;;;8.40;5.40;;;7.20;1.00;;;;;;5033039;28;20485;-74
2021/09/23 04:55:09;;;;;;;8.93;6.63;;;7.20;1.00;;;;;;5032782;28;20183;-74
2021/09/23 04:57:43;;;;;;;10.30;5.97;;;7.10;1.00;;;;;;5033353;28;20399;-77
2021/09/23 05:00:26;;;;;;;9.87;5.73;;;7.20;1.00;;;;;;5032269;28;20468;-78
2021/09/23 05:02:56;;;;;;;8.33;5.43;;;7.20;1.00;;;;;;5032610;28;20423;-77
2021/09/23 05:05:31;;;;;;;8.30;5.60;;;7.20;1.00;;;;;;5033953;28;20419;-77
2021/09/23 05:08:01;;;;;;;11.20;6.17;;;7.20;1.00;;;;;;5028704;28;20514;-77
2021/09/23 05:10:27;;;;;;;6.60;4.17;;;7.10;1.00;;;;;;5019700;28;20941;-77
2021/09/23 05:13:19;;;;;;;4.07;3.67;;;7.10;1.00;;;;;;5029558;28;20450;-77
2021/09/23 05:16:19;;;;;;;9.60;5.50;;;7.10;1.00;;;;;;5026657;28;20180;-77
2021/09/23 05:18:45;;;;;;;8.53;6.40;;;7.10;1.00;;;;;;5026864;28;20415;-77
2021/09/23 05:21:19;;;;;;;10.90;5.67;;;7.10;1.00;;;;;;5035378;28;20466;-77
2021/09/23 05:23:49;;;;;;;8.97;5.70;;;7.20;1.00;;;;;;5028304;28;20410;-77
2021/09/23 05:26:25;;;;;;;4.70;3.93;;;7.10;1.00;;;;;;5031462;28;20943;-77
2021/09/23 05:28:55;;;;;;;15.93;4.10;;;7.10;1.00;;;;;;5032141;28;20995;-77
2021/09/23 05:31:43;;;;;;;4.33;3.50;;;7.20;1.00;;;;;;5026568;28;20420;-77
2021/09/23 05:34:19;;;;;;;10.87;4.17;;;7.10;1.00;;;;;;5028945;28;20430;-77
2021/09/23 05:37:25;;;;;;;6.97;3.90;;;7.10;1.00;;;;;;5033748;28;20464;-77
2021/09/23 05:39:50;;;;;;;7.87;4.30;;;7.20;1.00;;;;;;5028632;28;20516;-77
2021/09/23 05:42:16;;;;;;;6.90;4.03;;;7.20;1.00;;;;;;5022818;28;20431;-76
2021/09/23 05:44:50;;;;;;;4.37;3.90;;;7.30;1.00;;;;;;5016398;28;20168;-74
2021/09/23 05:47:16;;;;;;;6.13;3.70;;;7.30;1.00;;;;;;5016053;28;20483;-74
2021/09/23 05:49:43;;;;;;;6.33;4.17;;;7.30;1.00;;;;;;5015866;28;20398;-74
2021/09/23 05:52:10;;;;;;;3.53;3.10;;;7.40;1.00;;;;;;5027278;28;20471;-74
2021/09/23 05:54:36;;;;;;;5.37;4.00;;;7.40;1.00;;;;;;5017752;28;20459;-75
2021/09/23 05:57:02;;;;;;;6.17;4.50;;;7.50;1.00;;;;;;5015087;28;20400;-80
2021/09/23 05:59:28;;;;;;;6.77;4.57;;;;;;;;;;5015426;28;20837;-79
2021/09/23 06:01:55;;;;;;;4.90;4.27;;;;;;;;;;5015180;28;20389;-75
2021/09/23 06:04:24;;;;;;;5.77;4.07;;;7.50;1.00;;;;;;5020720;28;20608;-75
2021/09/23 06:06:50;;;;;;;4.30;3.53;;;7.70;1.00;;;;;;5034204;28;20423;-75
2021/09/23 06:09:16;;;;;;;4.10;3.67;;;7.70;1.00;;;;;;5029465;28;20413;-78
2021/09/23 06:11:42;;;;;;;5.17;3.70;;;;;;;;;;5014752;28;20243;-76
2021/09/23 06:14:08;;;;;;;6.50;4.30;;;7.80;1.00;;;;;;5029969;28;20211;-78
2021/09/23 06:16:34;;;;;;;6.70;3.90;;;7.80;1.00;;;;;;5033340;28;20442;-77
2021/09/23 06:19:00;;;;;;;8.73;4.30;;;7.90;1.00;;;;;;5032506;28;20415;-77
2021/09/23 06:21:31;;;;;;;8.17;4.37;;;7.90;1.00;;;;;;5029931;28;20921;-77
2021/09/23 06:23:57;;;;;;;6.40;4.00;;;7.90;1.00;;;;;;5025844;28;20258;-77
2021/09/23 06:26:23;;;;;;;6.87;4.30;;;8.00;1.00;;;;;;5033587;28;20876;-77
2021/09/23 06:28:49;;;;;;;5.57;3.43;;;;;;;;;;5034896;28;20160;-77
2021/09/23 06:31:15;;;;;;;8.93;4.00;;;;;;;;;;5034421;28;20427;-77
2021/09/23 06:33:42;;;;;;;7.13;3.80;;;8.20;1.00;;;;;;5028091;28;20520;-77
2021/09/23 06:36:08;;;;;;;5.53;3.90;;;8.30;1.00;;;;;;5033974;28;20921;-77
2021/09/23 06:38:34;;;;;;;5.97;4.20;;;;;;;;;;5034251;28;20399;-77
2021/09/23 06:41:00;;;;;;;5.50;4.10;;;8.50;1.00;;;;;;5033986;28;20196;-77
2021/09/23 06:43:26;;;;;;;11.43;4.87;;;;;;;;;;5034827;28;20917;-75
2021/09/23 06:45:51;;;;;;;7.60;4.50;;;;;;;;;;5033364;28;20632;-75
2021/09/23 06:48:18;;;;;;;9.67;4.80;;;;;;;;;;5033892;28;20413;-75
2021/09/23 06:50:43;;;;;;;8.37;5.10;;;;;;;;;;5034005;28;20396;-75
2021/09/23 06:53:09;;;;;;;10.33;4.17;;;9.00;1.00;;;;;;5034358;28;20981;-75
2021/09/23 06:55:35;;;;;;;5.80;4.00;;;;;;;;;;5033241;28;20423;-75
2021/09/23 06:58:01;;;;;;;9.20;4.00;;;;;;;;;;5033896;28;20521;-75
2021/09/23 07:00:27;;;;;;;5.83;3.83;;;;;;;;;;5032888;28;20465;-77
2021/09/23 07:02:53;;;;;;;8.77;4.27;;;;;;;;;;5021915;28;20412;-77
2021/09/23 07:05:19;;;;;;;5.40;3.80;;;;;;;;;;5030713;28;20411;-77
2021/09/23 07:07:46;;;;;;;4.50;3.80;;;;;;;;;;5033736;28;20809;-77
2021/09/23 07:10:12;;;;;;;4.27;3.87;;;;;;;;;;5033454;28;20981;-77
2021/09/23 07:12:38;;;;;;;5.63;4.40;;;9.90;1.00;;;;;;5033459;28;20866;-77
2021/09/23 07:15:04;;;;;;;6.03;4.57;;;9.80;1.00;;;;;;5030584;28;20435;-75
2021/09/23 07:17:31;;;;;;;8.90;5.20;;;10.10;1.00;;;;;;5013774;28;20400;-75
2021/09/23 07:19:57;;;;;;;9.60;5.20;;;;;;;;;;5019968;28;20457;-75
2021/09/23 07:22:22;;;;;;;11.27;5.30;;;10.30;1.00;;;;;;5033516;28;20482;-75
2021/09/23 07:24:48;;;;;;;7.83;4.37;;;10.50;1.00;;;;;;5033185;28;20437;-75
2021/09/23 07:27:14;;;;;;;11.00;4.83;;;10.60;1.00;;;;;;5033243;28;20530;-76
2021/09/23 07:29:43;;;;;;;8.03;4.60;;;10.90;1.00;;;;;;5033287;28;20261;-77
2021/09/23 07:32:10;;;;;;;8.47;5.30;;;11.00;1.00;;;;;;5033105;28;20566;-78
2021/09/23 07:34:36;;;;;;;8.10;5.30;;;11.10;1.00;;;;;;5015963;28;20771;-81
2021/09/23 07:37:04;;;;;;;8.40;5.57;;;11.20;1.00;;;;;;5013548;28;20954;-81
2021/09/23 07:39:30;;;;;;;9.83;6.77;;;11.30;1.00;;;;;;5012127;28;20424;-80
2021/09/23 07:41:55;;;;;;;12.10;6.10;;;11.60;1.00;;;;;;5018350;28;20985;-80
2021/09/23 07:44:22;;;;;;;12.73;6.50;;;11.80;1.00;;;;;;5033645;28;20478;-80
2021/09/23 07:46:48;;;;;;;8.90;6.17;;;12.00;1.00;;;;;;5030768;28;20165;-80
2021/09/23 07:49:14;;;;;;;9.30;6.00;;;12.50;1.00;;;;;;5032153;28;20733;-80
2021/09/23 07:51:39;;;;;;;12.60;6.90;;;12.30;1.00;;;;;;5033023;28;20423;-80
2021/09/23 07:54:05;;;;;;;13.43;7.20;;;12.40;1.00;;;;;;5031709;28;20247;-80
2021/09/23 07:56:31;;;;;;;12.83;6.77;;;12.60;1.00;;;;;;5032644;28;20357;-80
2021/09/23 07:58:56;;;;;;;12.00;7.37;;;12.80;1.00;;;;;;5031502;28;20179;-78
2021/09/23 08:01:23;;;;;;;13.47;6.00;;;;;;;;;;5032432;28;20177;-78
2021/09/23 08:03:50;;;;;;;10.63;6.20;;;13.10;1.00;;;;;;5032223;28;20669;-78
2021/09/23 08:06:16;;;;;;;9.80;5.93;;;13.20;1.00;;;;;;5032959;28;20409;-78
2021/09/23 08:08:42;;;;;;;11.73;6.53;;;;;;;;;;5031491;28;20423;-77
2021/09/23 08:11:08;;;;;;;10.70;6.07;;;;;;;;;;5032549;28;20235;-77
2021/09/23 08:13:34;;;;;;;9.73;6.07;;;;;;;;;;5030003;28;20503;-77
2021/09/23 08:15:59;;;;;;;11.30;7.30;;;13.60;1.00;;;;;;5029742;28;20509;-77
2021/09/23 08:18:25;;;;;;;8.20;5.80;;;13.90;1.00;;;;;;5032407;28;20405;-77
2021/09/23 08:20:50;;;;;;;10.53;5.80;;;14.00;1.00;;;;;;5026735;28;20714;-77
2021/09/23 08:23:18;;;;;;;8.17;5.33;;;14.10;1.00;;;;;;5031546;28;20247;-77
2021/09/23 08:25:44;;;;;;;12.10;5.30;;;14.30;1.00;;;;;;5030615;28;20180;-77
2021/09/23 08:28:12;;;;;;;11.17;5.67;;;14.50;1.00;;;;;;5031329;28;20447;-76
2021/09/23 08:30:38;;;;;;;7.53;5.93;;;;;;;;;;5032864;28;20424;-75
2021/09/23 08:33:03;;;;;;;9.80;5.67;;;14.60;1.00;;;;;;5027374;28;20453;-75
2021/09/23 08:35:30;;;;;;;9.80;5.80;;;;;;;;;;5012474;28;20400;-75
2021/09/23 08:37:55;;;;;;;11.97;6.63;;;14.80;1.00;;;;;;5012612;28;20204;-75
2021/09/23 08:40:21;;;;;;;7.57;6.00;;;15.00;1.00;;;;;;5013746;28;20431;-75
2021/09/23 08:42:47;;;;;;;11.53;6.10;;;15.10;1.00;;;;;;5016604;28;20165;-75
2021/09/23 08:45:15;;;;;;;10.23;6.60;;;15.10;1.00;;;;;;5016782;28;20161;-76
2021/09/23 08:47:42;;;;;;;10.10;5.30;;;15.20;1.00;;;;;;5016456;28;20200;-75
2021/09/23 08:50:11;;;;;;;7.07;4.47;;;15.30;1.00;;;;;;5016342;28;20785;-75
2021/09/23 08:52:37;;;;;;;12.67;5.40;;;15.40;1.00;;;;;;5016437;28;20427;-75
2021/09/23 08:55:22;;;;;;;8.83;5.27;;;15.50;1.00;;;;;;5016337;28;20899;-75
2021/09/23 08:57:48;;;;;;;9.57;4.67;;;15.60;1.00;;;;;;5016287;28;20371;-75
2021/09/23 09:00:14;;;;;;;8.73;4.87;;;15.70;1.00;;;;;;5016600;28;20763;-76
2021/09/23 09:02:40;;;;;;;8.60;4.87;;;15.90;1.00;;;;;;5016271;28;20172;-77
2021/09/23 09:05:06;;;;;;;10.03;4.90;;;15.90;1.00;;;;;;5016146;28;20374;-76
2021/09/23 09:07:31;;;;;;;7.43;4.60;;;15.90;1.00;;;;;;5016061;28;20244;-77
2021/09/23 09:10:07;;;;;;;12.33;5.20;;;16.00;1.00;;;;;;5015625;28;20597;-77
2021/09/23 09:12:41;;;;;;;12.67;5.53;;;16.10;1.00;;;;;;5035142;28;20515;-77
2021/09/23 09:15:08;;;;;;;9.30;5.63;;;16.20;1.00;;;;;;5035686;28;20398;-75
2021/09/23 09:17:55;;;;;;;4.10;3.40;;;16.30;1.00;;;;;;5027638;28;20466;-75
2021/09/23 09:20:21;;;;;;;9.10;4.63;;;16.50;1.00;;;;;;5031838;28;20405;-76
2021/09/23 09:22:46;;;;;;;9.47;5.43;;;16.50;1.00;;;;;;5025984;28;20391;-75
2021/09/23 09:25:13;;;;;;;6.80;4.73;;;16.60;1.00;;;;;;5019751;28;20169;-75
2021/09/23 09:27:40;;;;;;;7.10;4.90;;;16.60;1.00;;;;;;5036009;28;20161;-75
2021/09/23 09:30:16;;;;;;;15.43;4.57;;;16.70;1.00;;;;;;5035614;28;20416;-76
2021/09/23 09:32:46;;;;;;;10.83;4.93;;;16.80;1.00;;;;;;5035454;28;20764;-76
2021/09/23 09:35:22;;;;;;;10.87;4.97;;;16.90;1.00;;;;;;5034917;28;20446;-76
2021/09/23 09:37:51;;;;;;;7.40;3.63;;;16.90;1.00;;;;;;5035552;28;20395;-76
2021/09/23 09:40:23;;;;;;;4.33;3.70;;;17.10;1.00;;;;;;5034970;28;20426;-76
2021/09/23 09:42:53;;;;;;;6.70;3.60;;;;;;;;;;5035398;28;20400;-76
2021/09/23 09:45:27;;;;;;;5.47;4.27;;;17.10;1.00;;;;;;5035811;28;20483;-76
2021/09/23 09:47:53;;;;;;;11.60;5.07;;;17.20;1.00;;;;;;5035313;28;20423;-76
2021/09/23 09:50:22;;;;;;;11.63;5.20;;;17.30;1.00;;;;;;5035235;28;20382;-76
2021/09/23 09:52:56;;;;;;;6.23;4.60;;;17.20;1.00;;;;;;5035208;28;20483;-76
2021/09/23 09:55:22;;;;;;;7.93;4.53;;;17.40;1.00;;;;;;5035072;28;20979;-76
2021/09/23 09:57:50;;;;;;;8.10;4.33;;;17.60;1.00;;;;;;5035147;28;20774;-76
2021/09/23 10:00:17;;;;;;;10.80;4.60;;;17.70;1.00;;;;;;5035402;28;20478;-76
2021/09/23 10:02:44;;;;;;;11.53;5.20;;;17.80;1.00;;;;;;5034959;28;20402;-76
2021/09/23 10:05:11;;;;;;;7.77;5.10;;;17.80;1.00;;;;;;5034907;28;20397;-76
2021/09/23 10:07:39;;;;;;;8.60;4.90;;;17.90;1.00;;;;;;5034880;28;20432;-76
2021/09/23 10:10:06;;;;;;;9.80;4.17;;;18.00;1.00;;;;;;5034788;28;20416;-76
2021/09/23 10:12:32;;;;;;;6.43;4.17;;;18.10;1.00;;;;;;5034950;28;20420;-76
2021/09/23 10:14:59;;;;;;;6.60;3.87;;;18.30;1.00;;;;;;5034808;28;20406;-76
2021/09/23 10:17:29;;;;;;;6.90;3.77;;;18.30;1.00;;;;;;5035048;28;20440;-76
2021/09/23 10:19:58;;;;;;;5.63;3.83;;;18.40;1.00;;;;;;5034577;28;20451;-76
2021/09/23 10:22:25;;;;;;;6.10;3.10;;;18.50;1.00;;;;;;5034423;28;20444;-76
2021/09/23 10:24:52;;;;;;;4.97;3.23;;;18.50;1.00;;;;;;5034607;28;20791;-76
2021/09/23 10:30:04;;;;;;;11.40;3.60;;;18.70;1.00;;;;;;5034589;28;20453;-76
2021/09/23 10:32:31;;;;;;;6.70;3.07;;;18.80;1.00;;;;;;5034905;28;20410;-76
2021/09/23 10:34:57;;;;;;;7.97;3.43;;;18.80;1.00;;;;;;5033994;28;20437;-76
2021/09/23 10:37:23;;;;;;;3.80;2.60;;;18.90;1.00;;;;;;5033824;28;20430;-76
2021/09/23 10:39:49;;;;;;;4.37;2.53;;;19.00;1.00;;;;;;5034026;28;20222;-76
2021/09/23 10:42:20;;;;;;;3.23;2.57;;;19.10;1.00;;;;;;5034319;28;20878;-76
2021/09/23 10:44:48;;;;;;;3.80;2.33;;;19.20;1.00;;;;;;5034285;28;20183;-76
2021/09/23 10:47:23;;;;;;;4.53;2.40;;;19.30;1.00;;;;;;5034527;28;20402;-76
2021/09/23 10:49:49;;;;;;;2.53;2.03;;;19.40;1.00;;;;;;5033934;28;20432;-76
2021/09/23 10:52:15;;;;;;;8.10;2.80;;;19.60;1.00;;;;;;5034208;28;20426;-76
2021/09/23 10:54:41;;;;;;;4.17;2.27;;;19.60;1.00;;;;;;5033837;28;20458;-76
2021/09/23 10:57:07;;;;;;;2.27;2.07;;;19.80;1.00;;;;;;5024146;28;20496;-76
2021/09/23 10:59:33;;;;;;;6.20;2.87;;;19.80;1.00;;;;;;5033452;28;20453;-76
2021/09/23 11:02:22;;;;;;;7.50;2.77;;;19.90;1.00;;;;;;5032446;28;20414;-77
2021/09/23 11:04:55;;;;;;;3.37;2.40;;;19.90;1.00;;;;;;5031958;28;20192;-76
2021/09/23 11:07:22;;;;;;;2.60;2.30;;;20.00;1.00;;;;;;5033631;28;20806;-76
2021/09/23 11:10:11;;;;;;;4.27;2.70;;;20.10;1.00;;;;;;5033671;28;20404;-76
2021/09/23 11:12:39;;;;;;;4.17;2.73;;;20.10;1.00;;;;;;5032782;28;20834;-76
2021/09/23 11:15:06;;;;;;;5.73;2.83;;;20.30;1.00;;;;;;5014585;28;20886;-76
2021/09/23 11:17:33;;;;;;;3.07;2.50;;;20.30;1.00;;;;;;5019894;28;20413;-76
2021/09/23 11:20:08;;;;;;;3.27;2.67;;;20.30;1.00;;;;;;5033418;28;20439;-76
2021/09/23 11:22:42;;;;;;;6.37;2.67;;;20.40;1.00;;;;;;5013795;28;20406;-76
2021/09/23 11:25:12;;;;;;;2.13;1.90;;;20.60;1.00;;;;;;5017422;28;20482;-76
2021/09/23 11:27:41;;;;;;;3.03;2.17;;;20.60;1.00;;;;;;5031159;28;20427;-77
2021/09/23 11:30:22;;;;;;;7.23;2.80;;;20.70;1.00;;;;;;5031921;28;20427;-76
2021/09/23 11:33:00;;;;;;;4.77;1.93;;;20.70;1.00;;;;;;5031599;28;20398;-76
2021/09/23 11:35:31;;;;;;;4.27;3.20;;;20.80;1.00;;;;;;5028923;28;20411;-76
2021/09/23 11:37:58;;;;;;;4.13;2.63;;;20.80;1.00;;;;;;5033285;28;20431;-76
2021/09/23 11:40:27;;;;;;;3.30;2.60;;;20.90;1.00;;;;;;5032688;28;20463;-76
2021/09/23 11:42:53;;;;;;;2.50;2.10;;;20.90;1.00;;;;;;5030021;28;20419;-76
2021/09/23 11:45:21;;;;;;;3.60;2.90;;;21.00;1.00;;;;;;5032794;28;20891;-76
2021/09/23 11:47:48;;;;;;;4.87;2.97;;;21.00;1.00;;;;;;5033537;28;20442;-76
2021/09/23 11:50:41;;;;;;;2.67;2.40;;;21.10;1.00;;;;;;5015593;28;20822;-76
2021/09/23 11:53:10;;;;;;;3.00;2.70;;;21.20;1.00;;;;;;5013701;28;20424;-78
2021/09/23 11:55:41;;;;;;;3.67;2.40;;;21.30;1.00;;;;;;5015147;28;20401;-76
2021/09/23 11:58:13;;;;;;;3.30;2.37;;;21.40;1.00;;;;;;5032682;28;20446;-76
2021/09/23 12:00:44;;;;;;;2.40;1.93;;;21.40;1.00;;;;;;5032391;28;20444;-76
2021/09/23 12:03:11;;;;;;;9.33;3.13;;;21.60;1.00;;;;;;5028652;28;20852;-76
2021/09/23 12:05:37;;;;;;;2.77;2.30;;;21.60;1.00;;;;;;5013193;28;20364;-76
2021/09/23 12:08:14;;;;;;;2.87;2.17;;;21.70;1.00;;;;;;5013141;28;20441;-77
2021/09/23 12:10:47;;;;;;;4.03;2.20;;;21.80;1.00;;;;;;5013117;28;20739;-76
2021/09/23 12:13:21;;;;;;;4.57;2.50;;;21.80;1.00;;;;;;5028371;28;20417;-76
2021/09/23 12:15:56;;;;;;;5.33;2.47;;;22.10;1.00;;;;;;5016853;28;20402;-76
2021/09/23 12:18:24;;;;;;;3.27;2.50;;;22.10;1.00;;;;;;5017560;28;20410;-76
2021/09/23 12:20:52;;;;;;;5.33;2.77;;;22.10;1.00;;;;;;5023311;28;20559;-76
2021/09/23 12:23:33;;;;;;;4.03;2.30;;;22.10;1.00;;;;;;5036758;28;20478;-76
2021/09/23 12:26:13;;;;;;;3.73;2.63;;;22.40;1.00;;;;;;5032182;28;20411;-76
2021/09/23 12:28:42;;;;;;;3.07;2.37;;;22.40;1.00;;;;;;5031789;28;20472;-76
2021/09/23 12:31:11;;;;;;;3.97;2.33;;;22.50;1.00;;;;;;5035825;28;20427;-76
2021/09/23 12:33:52;;;;;;;2.50;2.13;;;22.50;1.00;;;;;;5036690;28;20502;-76
2021/09/23 12:36:19;;;;;;;3.73;2.67;;;22.60;1.00;;;;;;5036606;28;20392;-76
2021/09/23 12:38:45;;;;;;;3.10;2.23;;;22.60;1.00;;;;;;5036176;28;20416;-76
2021/09/23 12:41:19;;;;;;;2.90;2.40;;;22.70;1.00;;;;;;5037015;28;20559;-76
2021/09/23 12:43:45;;;;;;;3.63;2.43;;;22.80;1.00;;;;;;5032098;28;20868;-76
2021/09/23 12:46:43;;;;;;;3.10;2.67;;;;;;;;;;5032398;28;20474;-81
2021/09/23 12:52:39;;;;;;;2.73;2.33;;;23.10;1.00;;;;;;5036677;28;20503;-85
2021/09/23 12:58:26;;;;;;;7.50;2.53;;;23.60;1.00;;;;;;5032730;28;20957;-85
2021/09/23 13:14:26;;;;;;;4.00;3.23;;;23.70;1.00;;;;;;5036395;28;20423;-82
2021/09/23 13:17:24;;;;;;;5.37;3.20;;;23.60;1.00;;;;;;5036073;28;20398;-80
2021/09/23 13:20:37;;;;;;;4.63;2.73;;;23.60;1.00;;;;;;5032363;28;20818;-80
2021/09/23 13:26:25;;;;;;;4.93;3.17;;;23.60;1.00;;;;;;5035550;28;20379;-80
2021/09/23 13:29:43;;;;;;;4.43;2.50;;;23.60;1.00;;;;;;5035048;28;20530;-80
2021/09/23 13:39:04;;;;;;;3.40;2.27;;;24.00;1.00;;;;;;5033613;28;20505;-80
2021/09/23 13:41:55;;;;;;;27.20;2.70;;;24.20;1.00;;;;;;5035664;28;20452;-80
2021/09/23 13:51:06;;;;;;;10.43;2.50;;;24.30;1.00;;;;;;5035528;28;20365;-81
2021/09/23 13:56:54;;;;;;;2.57;2.37;;;;;;;;;;5035389;28;20423;-81
2021/09/23 14:00:14;;;;;;;7.93;2.40;;;24.30;1.00;;;;;;5028471;28;20509;-81
2021/09/23 14:02:44;;;;;;;2.50;2.30;;;24.30;1.00;;;;;;5016173;28;20405;-80
2021/09/23 14:05:19;;;;;;;4.00;2.40;;;24.40;1.00;;;;;;5015992;28;20439;-80
2021/09/23 14:08:25;;;;;;;8.00;2.17;;;24.50;1.00;;;;;;5029710;28;20923;-79
2021/09/23 14:10:51;;;;;;;3.67;2.63;;;24.50;1.00;;;;;;5032885;28;20414;-82
2021/09/23 14:17:07;;;;;;;5.27;2.20;;;24.50;1.00;;;;;;5034670;28;20397;-82
2021/09/23 14:23:13;;;;;;;3.10;2.20;;;24.70;1.00;;;;;;5015346;28;20493;-83
2021/09/23 14:25:39;;;;;;;11.10;2.63;;;24.80;1.00;;;;;;5027465;28;20426;-81
2021/09/23 14:39:01;;;;;;;2.83;2.50;;;25.30;1.00;;;;;;5033274;28;20468;-84
2021/09/23 14:45:10;;;;;;;4.60;2.70;;;;;;;;;;5022787;28;20456;-84
2021/09/23 14:47:36;;;;;;;3.23;2.30;;;;;;;;;;5034296;28;20413;-83
2021/09/23 14:53:07;;;;;;;2.43;2.10;;;25.80;1.00;;;;;;5034628;28;20901;-80
2021/09/23 14:55:33;;;;;;;3.43;2.50;;;25.90;1.00;;;;;;5034259;28;20471;-76
2021/09/23 14:58:07;;;;;;;4.03;2.30;;;25.90;1.00;;;;;;5034124;28;20490;-76
2021/09/23 15:00:43;;;;;;;2.90;2.57;;;25.90;1.00;;;;;;5034478;28;20594;-76
2021/09/23 15:03:14;;;;;;;4.27;2.50;;;;;;;;;;5033707;28;20429;-76